C2008 KNBG-KNBG
Flight info
| Callsign | C2008 |
|---|---|
| Flight time | N/A |
| Altitude | 5000 |
| Route | LEV |
| Aircraft | C30J/M-VGDW/C |
Departure
| Time | 2026-05-08 06:20 |
|---|---|
| Airport | New Orleans NAS JRB/Alvin Callender Field (KNBG) |
Arrival
| Time | N/A |
|---|---|
| Airport | New Orleans NAS JRB/Alvin Callender Field (KNBG) |
| Time | Latitude | Longitude | Altitude | Speed | Heading |
|---|---|---|---|---|---|
| 2026-05-08 06:02 | 29.82002 | -90.02614 | 10 ft | 0 kts | 45° |
| 2026-05-08 06:11 | 29.82000 | -90.02615 | 10 ft | 0 kts | 43° |
| 2026-05-08 06:11 | 29.82005 | -90.02610 | 10 ft | 1 kts | 59° |
| 2026-05-08 06:11 | 29.82004 | -90.02607 | 10 ft | 1 kts | 105° |
| 2026-05-08 06:12 | 29.81983 | -90.02598 | 10 ft | 7 kts | 173° |
| 2026-05-08 06:12 | 29.81941 | -90.02622 | 10 ft | 8 kts | 230° |
| 2026-05-08 06:12 | 29.81910 | -90.02688 | 10 ft | 10 kts | 280° |
| 2026-05-08 06:12 | 29.81938 | -90.02730 | 10 ft | 11 kts | 320° |
| 2026-05-08 06:13 | 29.82057 | -90.02844 | 10 ft | 29 kts | 319° |
| 2026-05-08 06:13 | 29.82201 | -90.02979 | 15 ft | 24 kts | 320° |
| 2026-05-08 06:13 | 29.82316 | -90.03084 | 13 ft | 18 kts | 320° |
| 2026-05-08 06:13 | 29.82401 | -90.03167 | 14 ft | 7 kts | 326° |
| 2026-05-08 06:14 | 29.82433 | -90.03173 | 13 ft | 4 kts | 7° |
| 2026-05-08 06:14 | 29.82491 | -90.03152 | 12 ft | 15 kts | 17° |
| 2026-05-08 06:14 | 29.82616 | -90.03099 | 9 ft | 18 kts | 35° |
| 2026-05-08 06:14 | 29.82716 | -90.02992 | 8 ft | 22 kts | 44° |
| 2026-05-08 06:15 | 29.82826 | -90.02869 | 6 ft | 22 kts | 45° |
| 2026-05-08 06:15 | 29.82933 | -90.02750 | 9 ft | 20 kts | 45° |
| 2026-05-08 06:15 | 29.83035 | -90.02635 | 9 ft | 20 kts | 45° |
| 2026-05-08 06:15 | 29.83135 | -90.02523 | 12 ft | 20 kts | 43° |
| 2026-05-08 06:16 | 29.83232 | -90.02415 | 11 ft | 18 kts | 46° |
| 2026-05-08 06:16 | 29.83328 | -90.02307 | 11 ft | 20 kts | 44° |
| 2026-05-08 06:16 | 29.83431 | -90.02192 | 10 ft | 21 kts | 44° |
| 2026-05-08 06:16 | 29.83537 | -90.02073 | 7 ft | 22 kts | 44° |
| 2026-05-08 06:17 | 29.83758 | -90.01827 | 9 ft | 22 kts | 44° |
| 2026-05-08 06:17 | 29.83862 | -90.01711 | 11 ft | 22 kts | 45° |
| 2026-05-08 06:17 | 29.83970 | -90.01590 | 13 ft | 22 kts | 44° |
| 2026-05-08 06:18 | 29.84077 | -90.01471 | 12 ft | 22 kts | 44° |
| 2026-05-08 06:18 | 29.84155 | -90.01388 | 11 ft | 7 kts | 30° |
| 2026-05-08 06:18 | 29.84198 | -90.01400 | 10 ft | 7 kts | 317° |
| 2026-05-08 06:18 | 29.84238 | -90.01449 | 10 ft | 10 kts | 313° |
| 2026-05-08 06:19 | 29.84292 | -90.01516 | 11 ft | 11 kts | 302° |
| 2026-05-08 06:19 | 29.84227 | -90.01644 | 10 ft | 42 kts | 225° |
| 2026-05-08 06:19 | 29.83775 | -90.02140 | 7 ft | 134 kts | 225° |
| 2026-05-08 06:19 | 29.82992 | -90.03025 | 209 ft | 174 kts | 226° |
| 2026-05-08 06:20 | 29.81933 | -90.03712 | 726 ft | 182 kts | 186° |
| 2026-05-08 06:20 | 29.80653 | -90.03596 | 1357 ft | 186 kts | 176° |
| 2026-05-08 06:20 | 29.79380 | -90.03440 | 2078 ft | 181 kts | 180° |
| 2026-05-08 06:20 | 29.78137 | -90.03474 | 2827 ft | 179 kts | 185° |
| 2026-05-08 06:21 | 29.76790 | -90.03538 | 3024 ft | 210 kts | 185° |
| 2026-05-08 06:21 | 29.75229 | -90.03643 | 2984 ft | 238 kts | 186° |
| 2026-05-08 06:21 | 29.73521 | -90.03793 | 2961 ft | 252 kts | 187° |
| 2026-05-08 06:21 | 29.71752 | -90.03973 | 2971 ft | 258 kts | 187° |
| 2026-05-08 06:22 | 29.69944 | -90.04168 | 2972 ft | 263 kts | 187° |
| 2026-05-08 06:22 | 29.68111 | -90.04377 | 2959 ft | 266 kts | 188° |
| 2026-05-08 06:22 | 29.66300 | -90.04588 | 2961 ft | 255 kts | 188° |
| 2026-05-08 06:22 | 29.64577 | -90.04788 | 2964 ft | 246 kts | 188° |
| 2026-05-08 06:23 | 29.62892 | -90.04987 | 2966 ft | 241 kts | 188° |
| 2026-05-08 06:23 | 29.61239 | -90.05185 | 2954 ft | 233 kts | 188° |
| 2026-05-08 06:23 | 29.59598 | -90.05386 | 2973 ft | 244 kts | 189° |
| 2026-05-08 06:23 | 29.57880 | -90.05601 | 2971 ft | 253 kts | 188° |
| 2026-05-08 06:24 | 29.56116 | -90.05818 | 2967 ft | 256 kts | 188° |
| 2026-05-08 06:24 | 29.54331 | -90.06031 | 2967 ft | 259 kts | 188° |
| 2026-05-08 06:24 | 29.52540 | -90.06244 | 2965 ft | 259 kts | 188° |
| 2026-05-08 06:24 | 29.50772 | -90.06454 | 2966 ft | 259 kts | 188° |
| 2026-05-08 06:25 | 29.48972 | -90.06668 | 2964 ft | 260 kts | 188° |
| 2026-05-08 06:25 | 29.47171 | -90.06885 | 2966 ft | 260 kts | 188° |
| 2026-05-08 06:25 | 29.45374 | -90.07096 | 2967 ft | 260 kts | 188° |
| 2026-05-08 06:25 | 29.43566 | -90.07311 | 2967 ft | 260 kts | 188° |
| 2026-05-08 06:26 | 29.41770 | -90.07523 | 2963 ft | 260 kts | 188° |
| 2026-05-08 06:26 | 29.39965 | -90.07737 | 2968 ft | 260 kts | 188° |
| 2026-05-08 06:26 | 29.38170 | -90.07949 | 2965 ft | 259 kts | 188° |
| 2026-05-08 06:26 | 29.36377 | -90.08164 | 2967 ft | 260 kts | 188° |
| 2026-05-08 06:27 | 29.34578 | -90.08375 | 2961 ft | 260 kts | 188° |
| 2026-05-08 06:27 | 29.32776 | -90.08589 | 2969 ft | 260 kts | 188° |
| 2026-05-08 06:27 | 29.30976 | -90.08806 | 2955 ft | 260 kts | 188° |
| 2026-05-08 06:27 | 29.29176 | -90.09023 | 2968 ft | 260 kts | 188° |
| 2026-05-08 06:28 | 29.27380 | -90.09234 | 2962 ft | 260 kts | 188° |
| 2026-05-08 06:28 | 29.25579 | -90.09445 | 2967 ft | 260 kts | 188° |
| 2026-05-08 06:28 | 29.23781 | -90.09659 | 2962 ft | 260 kts | 188° |
| 2026-05-08 06:28 | 29.21977 | -90.09874 | 2968 ft | 260 kts | 188° |
| 2026-05-08 06:29 | 29.20181 | -90.10084 | 2970 ft | 260 kts | 188° |
| 2026-05-08 06:29 | 29.18375 | -90.10203 | 2961 ft | 261 kts | 179° |
| 2026-05-08 06:29 | 29.16601 | -90.09863 | 2966 ft | 264 kts | 166° |
| 2026-05-08 06:29 | 29.14837 | -90.09198 | 2960 ft | 263 kts | 162° |
| 2026-05-08 06:30 | 29.13137 | -90.08492 | 2969 ft | 263 kts | 162° |
| 2026-05-08 06:30 | 29.11423 | -90.07769 | 2960 ft | 263 kts | 161° |
| 2026-05-08 06:30 | 29.09703 | -90.07042 | 2968 ft | 262 kts | 162° |
| 2026-05-08 06:30 | 29.07995 | -90.06319 | 2968 ft | 263 kts | 162° |
| 2026-05-08 06:31 | 29.06272 | -90.05584 | 2969 ft | 263 kts | 161° |
| 2026-05-08 06:31 | 29.04563 | -90.04845 | 2968 ft | 264 kts | 161° |
| 2026-05-08 06:31 | 29.02844 | -90.04108 | 2967 ft | 264 kts | 162° |
| 2026-05-08 06:31 | 29.01119 | -90.03384 | 2966 ft | 263 kts | 162° |
| 2026-05-08 06:32 | 28.99399 | -90.02650 | 2968 ft | 264 kts | 161° |
| 2026-05-08 06:32 | 28.97677 | -90.01914 | 2954 ft | 265 kts | 161° |
| 2026-05-08 06:32 | 28.95954 | -90.01179 | 2967 ft | 264 kts | 161° |
| 2026-05-08 06:32 | 28.94233 | -90.00446 | 2952 ft | 265 kts | 162° |
| 2026-05-08 06:33 | 28.92507 | -89.99711 | 2951 ft | 265 kts | 161° |
| 2026-05-08 06:33 | 28.90777 | -89.98974 | 2970 ft | 265 kts | 162° |
| 2026-05-08 06:33 | 28.89048 | -89.98239 | 2968 ft | 265 kts | 161° |
| 2026-05-08 06:33 | 28.87323 | -89.97505 | 2968 ft | 264 kts | 161° |
| 2026-05-08 06:34 | 28.85603 | -89.96772 | 2967 ft | 264 kts | 161° |
| 2026-05-08 06:34 | 28.83884 | -89.96040 | 2959 ft | 263 kts | 162° |
| 2026-05-08 06:34 | 28.82166 | -89.95309 | 2968 ft | 264 kts | 161° |
| 2026-05-08 06:34 | 28.80442 | -89.94582 | 2959 ft | 264 kts | 161° |
| 2026-05-08 06:35 | 28.78725 | -89.93851 | 2973 ft | 264 kts | 162° |
| 2026-05-08 06:35 | 28.77005 | -89.93121 | 2969 ft | 264 kts | 161° |
| 2026-05-08 06:35 | 28.75283 | -89.92387 | 2994 ft | 263 kts | 162° |
| 2026-05-08 06:35 | 28.73557 | -89.91655 | 2955 ft | 264 kts | 162° |
| 2026-05-08 06:36 | 28.71839 | -89.90928 | 2969 ft | 264 kts | 161° |
| 2026-05-08 06:36 | 28.70117 | -89.90199 | 2967 ft | 265 kts | 162° |
| 2026-05-08 06:36 | 28.68390 | -89.89465 | 2966 ft | 265 kts | 161° |
| 2026-05-08 06:36 | 28.66668 | -89.88731 | 2957 ft | 264 kts | 162° |
| 2026-05-08 06:37 | 28.64966 | -89.88012 | 2968 ft | 264 kts | 162° |
| 2026-05-08 06:37 | 28.63242 | -89.87285 | 2957 ft | 264 kts | 162° |
| 2026-05-08 06:37 | 28.61520 | -89.86554 | 2966 ft | 264 kts | 162° |
| 2026-05-08 06:37 | 28.59792 | -89.85822 | 2968 ft | 265 kts | 162° |
| 2026-05-08 06:38 | 28.58066 | -89.85090 | 2966 ft | 265 kts | 162° |
| 2026-05-08 06:38 | 28.56340 | -89.84360 | 2968 ft | 265 kts | 162° |
| 2026-05-08 06:38 | 28.54610 | -89.83628 | 2963 ft | 265 kts | 161° |
| 2026-05-08 06:38 | 28.52882 | -89.82897 | 2950 ft | 265 kts | 162° |
| 2026-05-08 06:39 | 28.51151 | -89.82168 | 2967 ft | 265 kts | 162° |
| 2026-05-08 06:39 | 28.49426 | -89.81441 | 2967 ft | 264 kts | 162° |
| 2026-05-08 06:39 | 28.47703 | -89.80714 | 2968 ft | 265 kts | 162° |
| 2026-05-08 06:39 | 28.45986 | -89.79986 | 2966 ft | 265 kts | 162° |
| 2026-05-08 06:40 | 28.44255 | -89.79257 | 2969 ft | 265 kts | 162° |
| 2026-05-08 06:40 | 28.42527 | -89.78527 | 2949 ft | 264 kts | 161° |
| 2026-05-08 06:40 | 28.40804 | -89.77800 | 2968 ft | 264 kts | 162° |
| 2026-05-08 06:40 | 28.39080 | -89.77075 | 2959 ft | 264 kts | 162° |
| 2026-05-08 06:41 | 28.37372 | -89.76363 | 2967 ft | 265 kts | 162° |
| 2026-05-08 06:41 | 28.35621 | -89.75625 | 2966 ft | 265 kts | 161° |
| 2026-05-08 06:41 | 28.33895 | -89.74894 | 2967 ft | 265 kts | 162° |
| 2026-05-08 06:41 | 28.32171 | -89.74168 | 2968 ft | 264 kts | 162° |
| 2026-05-08 06:42 | 28.30469 | -89.73453 | 2966 ft | 265 kts | 162° |
| 2026-05-08 06:42 | 28.28755 | -89.72678 | 2958 ft | 266 kts | 154° |
| 2026-05-08 06:42 | 28.27366 | -89.71304 | 2967 ft | 270 kts | 125° |
| 2026-05-08 06:42 | 28.26731 | -89.69314 | 2971 ft | 271 kts | 99° |
| 2026-05-08 06:43 | 28.26554 | -89.67183 | 2967 ft | 271 kts | 94° |
| 2026-05-08 06:43 | 28.26458 | -89.65048 | 2965 ft | 271 kts | 92° |
| 2026-05-08 06:43 | 28.26379 | -89.62907 | 2967 ft | 271 kts | 92° |
| 2026-05-08 06:43 | 28.26304 | -89.60774 | 2966 ft | 271 kts | 92° |
| 2026-05-08 06:44 | 28.26231 | -89.58634 | 2967 ft | 271 kts | 92° |
| 2026-05-08 06:44 | 28.26122 | -89.56491 | 2966 ft | 272 kts | 97° |
| 2026-05-08 06:44 | 28.25819 | -89.54374 | 2967 ft | 272 kts | 100° |
| 2026-05-08 06:44 | 28.25554 | -89.52255 | 2967 ft | 271 kts | 97° |
| 2026-05-08 06:45 | 28.25375 | -89.50124 | 2965 ft | 271 kts | 95° |
| 2026-05-08 06:45 | 28.25253 | -89.47989 | 2967 ft | 271 kts | 93° |
| 2026-05-08 06:45 | 28.25162 | -89.45852 | 2966 ft | 271 kts | 92° |
| 2026-05-08 06:45 | 28.25090 | -89.43711 | 2960 ft | 271 kts | 92° |
| 2026-05-08 06:46 | 28.25026 | -89.41584 | 2966 ft | 271 kts | 92° |
| 2026-05-08 06:46 | 28.24964 | -89.39447 | 2960 ft | 270 kts | 92° |
| 2026-05-08 06:46 | 28.24909 | -89.37311 | 2967 ft | 271 kts | 91° |
| 2026-05-08 06:46 | 28.24857 | -89.35172 | 2967 ft | 271 kts | 92° |
| 2026-05-08 06:47 | 28.24802 | -89.33036 | 2966 ft | 272 kts | 92° |
| 2026-05-08 06:47 | 28.24745 | -89.30899 | 2966 ft | 271 kts | 92° |
| 2026-05-08 06:47 | 28.24689 | -89.28771 | 2965 ft | 270 kts | 92° |
| 2026-05-08 06:47 | 28.24637 | -89.26648 | 2967 ft | 270 kts | 92° |
| 2026-05-08 06:48 | 28.24579 | -89.24542 | 2966 ft | 271 kts | 92° |
| 2026-05-08 06:48 | 28.24521 | -89.22416 | 2965 ft | 272 kts | 92° |
| 2026-05-08 06:48 | 28.24465 | -89.20274 | 2966 ft | 271 kts | 92° |
| 2026-05-08 06:48 | 28.24407 | -89.18140 | 2966 ft | 271 kts | 92° |
| 2026-05-08 06:49 | 28.24349 | -89.15996 | 2965 ft | 272 kts | 92° |
| 2026-05-08 06:49 | 28.24292 | -89.13855 | 2966 ft | 272 kts | 92° |
| 2026-05-08 06:49 | 28.24232 | -89.11709 | 2966 ft | 273 kts | 92° |
| 2026-05-08 06:49 | 28.24175 | -89.09569 | 2958 ft | 272 kts | 92° |
| 2026-05-08 06:50 | 28.24118 | -89.07414 | 2961 ft | 272 kts | 92° |
| 2026-05-08 06:50 | 28.24057 | -89.05269 | 2965 ft | 273 kts | 92° |
| 2026-05-08 06:50 | 28.23994 | -89.03122 | 2966 ft | 273 kts | 92° |
| 2026-05-08 06:50 | 28.23934 | -89.00973 | 2966 ft | 272 kts | 92° |
| 2026-05-08 06:51 | 28.23870 | -88.98831 | 2965 ft | 272 kts | 92° |
| 2026-05-08 06:51 | 28.23810 | -88.96687 | 2965 ft | 271 kts | 92° |
| 2026-05-08 06:51 | 28.23747 | -88.94549 | 2966 ft | 271 kts | 92° |
| 2026-05-08 06:51 | 28.23684 | -88.92410 | 2966 ft | 271 kts | 92° |
| 2026-05-08 06:52 | 28.23622 | -88.90274 | 2965 ft | 271 kts | 92° |
| 2026-05-08 06:52 | 28.23559 | -88.88137 | 2967 ft | 271 kts | 92° |
| 2026-05-08 06:52 | 28.23495 | -88.85998 | 2965 ft | 271 kts | 92° |
| 2026-05-08 06:52 | 28.23431 | -88.83865 | 2967 ft | 272 kts | 92° |
| 2026-05-08 06:53 | 28.23369 | -88.81726 | 2966 ft | 272 kts | 92° |
| 2026-05-08 06:53 | 28.23302 | -88.79609 | 2957 ft | 271 kts | 92° |
| 2026-05-08 06:53 | 28.23235 | -88.77470 | 2966 ft | 272 kts | 92° |
| 2026-05-08 06:53 | 28.23168 | -88.75331 | 2966 ft | 271 kts | 92° |
| 2026-05-08 06:54 | 28.23104 | -88.73187 | 2967 ft | 271 kts | 92° |
| 2026-05-08 06:54 | 28.23035 | -88.71053 | 2962 ft | 271 kts | 92° |
| 2026-05-08 06:54 | 28.22981 | -88.68915 | 2966 ft | 272 kts | 90° |
| 2026-05-08 06:54 | 28.23108 | -88.66779 | 2960 ft | 271 kts | 82° |
| 2026-05-08 06:55 | 28.23492 | -88.64686 | 2967 ft | 271 kts | 75° |
| 2026-05-08 06:55 | 28.23999 | -88.62627 | 2967 ft | 271 kts | 73° |
| 2026-05-08 06:55 | 28.24526 | -88.60590 | 2961 ft | 271 kts | 73° |
| 2026-05-08 06:55 | 28.25065 | -88.58542 | 2966 ft | 271 kts | 73° |
| 2026-05-08 06:56 | 28.25604 | -88.56486 | 2966 ft | 272 kts | 73° |
| 2026-05-08 06:56 | 28.26146 | -88.54436 | 2967 ft | 271 kts | 72° |
| 2026-05-08 06:56 | 28.26672 | -88.52434 | 2953 ft | 252 kts | 73° |
| 2026-05-08 06:56 | 28.27148 | -88.50620 | 2958 ft | 234 kts | 73° |
| 2026-05-08 06:57 | 28.27611 | -88.48863 | 2968 ft | 232 kts | 73° |
| 2026-05-08 06:57 | 28.28073 | -88.47109 | 2968 ft | 233 kts | 72° |
| 2026-05-08 06:57 | 28.28536 | -88.45351 | 2967 ft | 233 kts | 73° |
| 2026-05-08 06:57 | 28.28996 | -88.43593 | 2955 ft | 232 kts | 73° |
| 2026-05-08 06:58 | 28.29462 | -88.41817 | 2655 ft | 234 kts | 72° |
| 2026-05-08 06:58 | 28.29921 | -88.40070 | 2347 ft | 231 kts | 72° |
| 2026-05-08 06:58 | 28.30377 | -88.38335 | 2055 ft | 229 kts | 72° |
| 2026-05-08 06:58 | 28.30827 | -88.36615 | 1975 ft | 227 kts | 72° |
| 2026-05-08 06:59 | 28.31276 | -88.34916 | 1966 ft | 228 kts | 72° |
| 2026-05-08 06:59 | 28.31736 | -88.33165 | 1965 ft | 229 kts | 73° |
| 2026-05-08 06:59 | 28.32185 | -88.31452 | 1968 ft | 230 kts | 72° |
| 2026-05-08 06:59 | 28.32638 | -88.29718 | 1963 ft | 230 kts | 73° |
| 2026-05-08 07:00 | 28.33092 | -88.27982 | 1963 ft | 229 kts | 72° |
| 2026-05-08 07:00 | 28.33548 | -88.26248 | 1967 ft | 229 kts | 72° |
| 2026-05-08 07:00 | 28.34002 | -88.24515 | 1963 ft | 229 kts | 73° |
| 2026-05-08 07:00 | 28.34455 | -88.22784 | 1961 ft | 222 kts | 72° |
| 2026-05-08 07:01 | 28.34866 | -88.21200 | 1949 ft | 201 kts | 73° |
| 2026-05-08 07:01 | 28.35257 | -88.19699 | 1961 ft | 198 kts | 73° |
| 2026-05-08 07:01 | 28.35645 | -88.18204 | 1974 ft | 197 kts | 72° |
| 2026-05-08 07:01 | 28.36037 | -88.16707 | 1970 ft | 198 kts | 72° |
| 2026-05-08 07:02 | 28.36296 | -88.15717 | 1962 ft | 198 kts | 72° |
| 2026-05-08 07:02 | 28.36686 | -88.14217 | 1965 ft | 198 kts | 73° |
| 2026-05-08 07:02 | 28.37076 | -88.12717 | 1963 ft | 198 kts | 72° |
| 2026-05-08 07:02 | 28.37468 | -88.11222 | 1966 ft | 198 kts | 72° |
| 2026-05-08 07:03 | 28.37857 | -88.09719 | 1964 ft | 198 kts | 72° |
| 2026-05-08 07:03 | 28.38257 | -88.08224 | 1965 ft | 198 kts | 68° |
| 2026-05-08 07:03 | 28.38968 | -88.06911 | 1965 ft | 196 kts | 43° |
| 2026-05-08 07:03 | 28.40097 | -88.06099 | 1966 ft | 192 kts | 19° |
| 2026-05-08 07:04 | 28.41355 | -88.05605 | 1965 ft | 191 kts | 13° |
| 2026-05-08 07:04 | 28.42628 | -88.05190 | 1965 ft | 191 kts | 12° |
| 2026-05-08 07:04 | 28.43902 | -88.04747 | 1962 ft | 192 kts | 21° |
| 2026-05-08 07:04 | 28.44863 | -88.03722 | 1958 ft | 197 kts | 65° |
| 2026-05-08 07:05 | 28.45167 | -88.02197 | 1970 ft | 199 kts | 83° |
| 2026-05-08 07:05 | 28.45272 | -88.00633 | 1965 ft | 198 kts | 86° |
| 2026-05-08 07:05 | 28.45345 | -87.99069 | 1962 ft | 199 kts | 87° |
| 2026-05-08 07:05 | 28.45413 | -87.97524 | 1964 ft | 198 kts | 87° |
| 2026-05-08 07:06 | 28.45479 | -87.95962 | 1965 ft | 199 kts | 87° |
| 2026-05-08 07:06 | 28.45544 | -87.94395 | 1964 ft | 198 kts | 87° |
| 2026-05-08 07:06 | 28.45613 | -87.92830 | 1968 ft | 198 kts | 86° |
| 2026-05-08 07:06 | 28.45683 | -87.91262 | 1964 ft | 199 kts | 87° |
| 2026-05-08 07:07 | 28.45749 | -87.89694 | 1964 ft | 198 kts | 87° |
| 2026-05-08 07:07 | 28.45809 | -87.88128 | 1962 ft | 199 kts | 89° |
| 2026-05-08 07:07 | 28.45382 | -87.86683 | 1961 ft | 195 kts | 134° |
| 2026-05-08 07:07 | 28.44228 | -87.85957 | 1972 ft | 191 kts | 169° |
| 2026-05-08 07:08 | 28.42924 | -87.85699 | 1964 ft | 189 kts | 176° |
| 2026-05-08 07:08 | 28.41618 | -87.85529 | 1966 ft | 189 kts | 177° |
| 2026-05-08 07:08 | 28.40314 | -87.85370 | 1964 ft | 189 kts | 177° |
| 2026-05-08 07:08 | 28.39005 | -87.85212 | 1964 ft | 189 kts | 177° |
| 2026-05-08 07:09 | 28.37695 | -87.85055 | 1966 ft | 189 kts | 177° |
| 2026-05-08 07:09 | 28.36385 | -87.84902 | 1964 ft | 189 kts | 177° |
| 2026-05-08 07:09 | 28.35076 | -87.84747 | 1964 ft | 189 kts | 177° |
| 2026-05-08 07:09 | 28.33768 | -87.84595 | 1964 ft | 189 kts | 177° |
| 2026-05-08 07:10 | 28.32460 | -87.84440 | 1965 ft | 189 kts | 177° |
| 2026-05-08 07:10 | 28.31152 | -87.84285 | 1964 ft | 189 kts | 177° |
| 2026-05-08 07:10 | 28.29844 | -87.84128 | 1965 ft | 189 kts | 177° |
| 2026-05-08 07:10 | 28.28534 | -87.83973 | 1964 ft | 189 kts | 177° |
| 2026-05-08 07:11 | 28.27226 | -87.83819 | 1965 ft | 189 kts | 177° |
| 2026-05-08 07:11 | 28.25918 | -87.83664 | 1963 ft | 189 kts | 177° |
| 2026-05-08 07:11 | 28.24610 | -87.83510 | 1964 ft | 189 kts | 177° |
| 2026-05-08 07:11 | 28.23321 | -87.83361 | 1965 ft | 189 kts | 177° |
| 2026-05-08 07:12 | 28.22012 | -87.83206 | 1964 ft | 189 kts | 177° |
| 2026-05-08 07:12 | 28.20707 | -87.83050 | 1965 ft | 189 kts | 177° |
| 2026-05-08 07:12 | 28.19399 | -87.82892 | 1963 ft | 189 kts | 177° |
| 2026-05-08 07:12 | 28.18103 | -87.82632 | 1955 ft | 192 kts | 157° |
| 2026-05-08 07:13 | 28.17201 | -87.81538 | 1965 ft | 197 kts | 111° |
| 2026-05-08 07:13 | 28.17006 | -87.79996 | 1969 ft | 199 kts | 91° |
| 2026-05-08 07:13 | 28.17032 | -87.78430 | 1964 ft | 198 kts | 88° |
| 2026-05-08 07:13 | 28.17093 | -87.76869 | 1963 ft | 198 kts | 87° |
| 2026-05-08 07:14 | 28.17160 | -87.75308 | 1964 ft | 198 kts | 87° |
| 2026-05-08 07:14 | 28.17227 | -87.73746 | 1964 ft | 198 kts | 87° |
| 2026-05-08 07:14 | 28.17296 | -87.72184 | 1964 ft | 199 kts | 87° |
| 2026-05-08 07:14 | 28.17364 | -87.70625 | 1966 ft | 198 kts | 87° |
| 2026-05-08 07:15 | 28.17430 | -87.69068 | 1964 ft | 198 kts | 87° |
| 2026-05-08 07:15 | 28.17498 | -87.67505 | 1965 ft | 199 kts | 87° |
| 2026-05-08 07:15 | 28.17563 | -87.65946 | 1963 ft | 198 kts | 87° |
| 2026-05-08 07:15 | 28.17629 | -87.64382 | 1965 ft | 199 kts | 87° |
| 2026-05-08 07:16 | 28.17694 | -87.62821 | 1963 ft | 198 kts | 87° |
| 2026-05-08 07:16 | 28.17758 | -87.61260 | 1964 ft | 198 kts | 87° |
| 2026-05-08 07:16 | 28.17823 | -87.59700 | 1965 ft | 198 kts | 87° |
| 2026-05-08 07:16 | 28.17889 | -87.58138 | 1964 ft | 198 kts | 87° |
| 2026-05-08 07:17 | 28.18089 | -87.56606 | 1958 ft | 197 kts | 63° |
| 2026-05-08 07:17 | 28.19046 | -87.55579 | 1970 ft | 191 kts | 18° |
| 2026-05-08 07:17 | 28.20343 | -87.55324 | 1968 ft | 189 kts | 0° |
| 2026-05-08 07:17 | 28.21652 | -87.55279 | 1964 ft | 188 kts | 358° |
| 2026-05-08 07:18 | 28.22941 | -87.55271 | 1965 ft | 188 kts | 357° |
| 2026-05-08 07:18 | 28.24250 | -87.55264 | 1964 ft | 188 kts | 357° |
| 2026-05-08 07:18 | 28.25559 | -87.55257 | 1962 ft | 188 kts | 357° |
| 2026-05-08 07:18 | 28.26867 | -87.55250 | 1964 ft | 188 kts | 357° |
| 2026-05-08 07:19 | 28.28176 | -87.55241 | 1964 ft | 188 kts | 357° |
| 2026-05-08 07:19 | 28.29488 | -87.55228 | 1964 ft | 188 kts | 357° |
| 2026-05-08 07:19 | 28.30796 | -87.55220 | 1964 ft | 188 kts | 357° |
| 2026-05-08 07:19 | 28.32103 | -87.55215 | 1964 ft | 188 kts | 357° |
| 2026-05-08 07:20 | 28.33410 | -87.55210 | 1965 ft | 188 kts | 357° |
| 2026-05-08 07:20 | 28.34719 | -87.55209 | 1965 ft | 188 kts | 357° |
| 2026-05-08 07:20 | 28.36025 | -87.55203 | 1964 ft | 188 kts | 357° |
| 2026-05-08 07:20 | 28.37332 | -87.55198 | 1965 ft | 188 kts | 357° |
| 2026-05-08 07:21 | 28.38638 | -87.55195 | 1967 ft | 188 kts | 357° |
| 2026-05-08 07:21 | 28.39950 | -87.55191 | 1964 ft | 188 kts | 357° |
| 2026-05-08 07:21 | 28.41261 | -87.55187 | 1963 ft | 189 kts | 357° |
| 2026-05-08 07:21 | 28.42568 | -87.55181 | 1964 ft | 188 kts | 357° |
| 2026-05-08 07:22 | 28.43877 | -87.55173 | 1965 ft | 188 kts | 357° |
| 2026-05-08 07:22 | 28.45186 | -87.55166 | 1964 ft | 188 kts | 357° |
| 2026-05-08 07:22 | 28.46493 | -87.55159 | 1964 ft | 188 kts | 357° |
| 2026-05-08 07:22 | 28.47804 | -87.55152 | 1965 ft | 188 kts | 357° |
| 2026-05-08 07:23 | 28.49110 | -87.55146 | 1965 ft | 188 kts | 357° |
| 2026-05-08 07:23 | 28.50418 | -87.55141 | 1964 ft | 188 kts | 357° |
| 2026-05-08 07:23 | 28.51724 | -87.55136 | 1964 ft | 188 kts | 357° |
| 2026-05-08 07:23 | 28.53016 | -87.55129 | 1964 ft | 188 kts | 357° |
| 2026-05-08 07:24 | 28.54324 | -87.55122 | 1963 ft | 188 kts | 358° |
| 2026-05-08 07:24 | 28.55539 | -87.54611 | 1963 ft | 195 kts | 41° |
| 2026-05-08 07:24 | 28.56145 | -87.53244 | 1970 ft | 199 kts | 78° |
| 2026-05-08 07:24 | 28.56312 | -87.51686 | 1965 ft | 199 kts | 85° |
| 2026-05-08 07:25 | 28.56395 | -87.50115 | 1964 ft | 198 kts | 87° |
| 2026-05-08 07:25 | 28.56465 | -87.48548 | 1965 ft | 198 kts | 87° |
| 2026-05-08 07:25 | 28.56595 | -87.45461 | 1965 ft | 199 kts | 87° |
| 2026-05-08 07:26 | 28.56663 | -87.43893 | 1964 ft | 199 kts | 87° |
| 2026-05-08 07:26 | 28.56728 | -87.42327 | 1963 ft | 198 kts | 87° |
| 2026-05-08 07:26 | 28.56794 | -87.40759 | 1964 ft | 199 kts | 87° |
| 2026-05-08 07:26 | 28.56862 | -87.39192 | 1965 ft | 199 kts | 87° |
| 2026-05-08 07:27 | 28.56926 | -87.37626 | 1964 ft | 198 kts | 87° |
| 2026-05-08 07:27 | 28.56989 | -87.36060 | 1964 ft | 198 kts | 87° |
| 2026-05-08 07:27 | 28.57054 | -87.34493 | 1965 ft | 198 kts | 87° |
| 2026-05-08 07:27 | 28.57118 | -87.32927 | 1964 ft | 199 kts | 87° |
| 2026-05-08 07:28 | 28.57185 | -87.31363 | 1964 ft | 198 kts | 87° |
| 2026-05-08 07:28 | 28.57250 | -87.29798 | 1964 ft | 198 kts | 87° |
| 2026-05-08 07:28 | 28.57315 | -87.28229 | 1964 ft | 199 kts | 87° |
| 2026-05-08 07:28 | 28.57381 | -87.26663 | 1964 ft | 198 kts | 87° |
| 2026-05-08 07:29 | 28.57310 | -87.25111 | 1960 ft | 197 kts | 111° |
| 2026-05-08 07:29 | 28.56449 | -87.23991 | 1963 ft | 193 kts | 156° |
| 2026-05-08 07:29 | 28.55175 | -87.23588 | 1967 ft | 190 kts | 174° |
| 2026-05-08 07:29 | 28.53868 | -87.23391 | 1965 ft | 189 kts | 176° |
| 2026-05-08 07:30 | 28.52560 | -87.23230 | 1964 ft | 189 kts | 177° |
| 2026-05-08 07:30 | 28.51251 | -87.23073 | 1964 ft | 189 kts | 177° |
| 2026-05-08 07:30 | 28.49945 | -87.22916 | 1963 ft | 189 kts | 177° |
| 2026-05-08 07:30 | 28.48638 | -87.22759 | 1964 ft | 189 kts | 177° |
| 2026-05-08 07:31 | 28.47330 | -87.22603 | 1964 ft | 189 kts | 177° |
| 2026-05-08 07:31 | 28.46020 | -87.22448 | 1964 ft | 189 kts | 177° |
| 2026-05-08 07:31 | 28.44713 | -87.22291 | 1963 ft | 189 kts | 177° |
| 2026-05-08 07:31 | 28.43405 | -87.22131 | 1964 ft | 189 kts | 177° |
| 2026-05-08 07:32 | 28.42098 | -87.21977 | 1963 ft | 188 kts | 177° |
| 2026-05-08 07:32 | 28.40789 | -87.21824 | 1966 ft | 189 kts | 177° |
| 2026-05-08 07:32 | 28.39482 | -87.21671 | 1965 ft | 189 kts | 177° |
| 2026-05-08 07:32 | 28.38172 | -87.21516 | 1964 ft | 189 kts | 177° |
| 2026-05-08 07:33 | 28.36867 | -87.21362 | 1968 ft | 189 kts | 177° |
| 2026-05-08 07:33 | 28.35556 | -87.21204 | 1964 ft | 190 kts | 177° |
| 2026-05-08 07:33 | 28.34249 | -87.21049 | 1965 ft | 188 kts | 177° |
| 2026-05-08 07:33 | 28.32938 | -87.20895 | 1965 ft | 189 kts | 177° |
| 2026-05-08 07:34 | 28.31632 | -87.20736 | 1965 ft | 189 kts | 177° |
| 2026-05-08 07:34 | 28.30323 | -87.20579 | 1964 ft | 189 kts | 177° |
| 2026-05-08 07:34 | 28.29014 | -87.20421 | 1963 ft | 190 kts | 177° |
| 2026-05-08 07:34 | 28.27724 | -87.20267 | 1964 ft | 189 kts | 177° |
| 2026-05-08 07:35 | 28.26401 | -87.20110 | 1964 ft | 189 kts | 177° |
| 2026-05-08 07:35 | 28.25111 | -87.19955 | 1964 ft | 189 kts | 177° |
| 2026-05-08 07:35 | 28.23801 | -87.19798 | 1964 ft | 189 kts | 177° |
| 2026-05-08 07:35 | 28.22493 | -87.19642 | 1963 ft | 189 kts | 177° |
| 2026-05-08 07:36 | 28.21185 | -87.19488 | 1964 ft | 189 kts | 177° |
| 2026-05-08 07:36 | 28.19881 | -87.19333 | 1964 ft | 189 kts | 177° |
| 2026-05-08 07:36 | 28.18573 | -87.19177 | 1963 ft | 189 kts | 177° |
| 2026-05-08 07:36 | 28.17265 | -87.19020 | 1966 ft | 189 kts | 177° |
| 2026-05-08 07:37 | 28.15955 | -87.18862 | 1964 ft | 190 kts | 177° |
| 2026-05-08 07:37 | 28.14648 | -87.18704 | 1963 ft | 189 kts | 177° |
| 2026-05-08 07:37 | 28.13339 | -87.18546 | 1965 ft | 188 kts | 177° |
| 2026-05-08 07:37 | 28.12035 | -87.18389 | 1965 ft | 189 kts | 177° |
| 2026-05-08 07:38 | 28.10724 | -87.18232 | 1964 ft | 189 kts | 177° |
| 2026-05-08 07:38 | 28.09416 | -87.18080 | 1963 ft | 189 kts | 177° |
| 2026-05-08 07:38 | 28.08108 | -87.17926 | 1964 ft | 189 kts | 177° |
| 2026-05-08 07:38 | 28.06804 | -87.17770 | 1963 ft | 189 kts | 177° |
| 2026-05-08 07:39 | 28.05496 | -87.17613 | 1969 ft | 189 kts | 177° |
| 2026-05-08 07:39 | 28.04204 | -87.17459 | 1965 ft | 189 kts | 177° |
| 2026-05-08 07:39 | 28.02895 | -87.17304 | 1963 ft | 189 kts | 177° |
| 2026-05-08 07:39 | 28.01589 | -87.17177 | 1959 ft | 188 kts | 187° |
| 2026-05-08 07:40 | 28.00474 | -87.17792 | 1960 ft | 180 kts | 233° |
| 2026-05-08 07:40 | 28.00166 | -87.19106 | 1964 ft | 178 kts | 281° |
| 2026-05-08 07:40 | 28.00858 | -87.20238 | 1964 ft | 183 kts | 327° |
| 2026-05-08 07:40 | 28.02110 | -87.20414 | 1962 ft | 191 kts | 14° |
| 2026-05-08 07:41 | 28.03306 | -87.19743 | 1968 ft | 194 kts | 27° |
| 2026-05-08 07:41 | 28.04460 | -87.18958 | 1963 ft | 194 kts | 29° |
| 2026-05-08 07:41 | 28.05606 | -87.18161 | 1964 ft | 193 kts | 29° |
| 2026-05-08 07:41 | 28.06752 | -87.17360 | 1966 ft | 193 kts | 29° |
| 2026-05-08 07:42 | 28.07898 | -87.16556 | 1964 ft | 193 kts | 29° |
| 2026-05-08 07:42 | 28.09043 | -87.15751 | 1963 ft | 193 kts | 29° |
| 2026-05-08 07:42 | 28.10183 | -87.14951 | 1964 ft | 193 kts | 29° |
| 2026-05-08 07:42 | 28.11330 | -87.14151 | 1966 ft | 193 kts | 29° |
| 2026-05-08 07:43 | 28.12473 | -87.13351 | 1964 ft | 194 kts | 29° |
| 2026-05-08 07:43 | 28.13619 | -87.12555 | 1965 ft | 193 kts | 29° |
| 2026-05-08 07:43 | 28.14761 | -87.11756 | 1964 ft | 193 kts | 29° |
| 2026-05-08 07:43 | 28.15908 | -87.10957 | 1965 ft | 194 kts | 29° |
| 2026-05-08 07:44 | 28.17052 | -87.10157 | 1965 ft | 193 kts | 29° |
| 2026-05-08 07:44 | 28.18199 | -87.09356 | 1964 ft | 193 kts | 29° |
| 2026-05-08 07:44 | 28.19343 | -87.08549 | 1964 ft | 194 kts | 29° |
| 2026-05-08 07:44 | 28.20482 | -87.07741 | 2050 ft | 189 kts | 30° |
| 2026-05-08 07:45 | 28.21518 | -87.06914 | 2433 ft | 177 kts | 34° |
| 2026-05-08 07:45 | 28.22446 | -87.06001 | 2613 ft | 183 kts | 44° |
| 2026-05-08 07:45 | 28.23267 | -87.04830 | 2659 ft | 191 kts | 56° |
| 2026-05-08 07:45 | 28.23790 | -87.03468 | 2779 ft | 193 kts | 75° |
| 2026-05-08 07:46 | 28.23887 | -87.01968 | 2916 ft | 191 kts | 97° |
| 2026-05-08 07:46 | 28.23511 | -87.00524 | 2986 ft | 192 kts | 118° |
| 2026-05-08 07:46 | 28.22707 | -86.99337 | 3065 ft | 190 kts | 141° |
| 2026-05-08 07:46 | 28.21569 | -86.98620 | 3107 ft | 188 kts | 167° |
| 2026-05-08 07:47 | 28.20287 | -86.98591 | 3120 ft | 185 kts | 198° |
| 2026-05-08 07:47 | 28.19255 | -86.99403 | 3031 ft | 185 kts | 238° |
| 2026-05-08 07:47 | 28.18967 | -87.00797 | 2949 ft | 186 kts | 279° |
| 2026-05-08 07:47 | 28.19653 | -87.01997 | 2878 ft | 191 kts | 326° |